Time;durP1;ratioP1;P1;durP2;ratioP2;P2;SDS_P1;SDS_P2;PMS_P1;PMS_P2;Temp;Humidity;BMP_temperature;BMP_pressure;BME280_temperature;BME280_humidity;BME280_pressure;Samples;Min_cycle;Max_cycle;Signal;HPM_P1;HPM_P2
2023/02/14 00:01:19;;;;;;;30.52;15.77;;;5.00;79.50;;;;;;9182089;19;20011;-65
2023/02/14 00:04:25;;;;;;;34.67;16.10;;;5.00;79.60;;;;;;9178628;19;20022;-65
2023/02/14 00:07:29;;;;;;;28.80;15.20;;;5.00;79.50;;;;;;9181532;19;20023;-65
2023/02/14 00:10:37;;;;;;;28.67;14.93;;;5.00;79.50;;;;;;9180336;19;20018;-65
2023/02/14 00:15:20;;;;;;;32.03;16.05;;;5.00;79.60;;;;;;9180188;19;20010;-65
2023/02/14 00:17:04;;;;;;;28.95;15.15;;;5.00;79.60;;;;;;9179847;19;20015;-64
2023/02/14 00:20:09;;;;;;;30.58;16.45;;;5.00;79.60;;;;;;9172447;19;20010;-65
2023/02/14 00:23:15;;;;;;;29.30;15.63;;;4.90;79.60;;;;;;9179463;19;20905;-64
2023/02/14 00:26:20;;;;;;;;;;;4.90;79.60;;;;;;9180620;19;20626;-64
2023/02/14 00:29:29;;;;;;;28.67;14.48;;;4.90;79.60;;;;;;9181338;19;19933;-64
2023/02/14 00:32:33;;;;;;;32.75;15.55;;;4.90;79.50;;;;;;9180835;19;20018;-64
2023/02/14 00:35:39;;;;;;;31.42;14.60;;;4.80;79.50;;;;;;9180524;19;20011;-64
2023/02/14 00:38:43;;;;;;;27.70;15.32;;;4.80;79.60;;;;;;9179130;19;20424;-64
2023/02/14 00:41:51;;;;;;;31.85;16.42;;;4.80;79.70;;;;;;9180913;19;20006;-64
2023/02/14 00:44:55;;;;;;;29.95;14.73;;;4.80;79.70;;;;;;9180349;19;20024;-64
2023/02/14 00:48:01;;;;;;;28.48;15.65;;;4.80;79.70;;;;;;9180599;19;20014;-64
2023/02/14 00:51:04;;;;;;;;;;;4.70;80.30;;;;;;9181397;19;20475;-64
2023/02/14 00:54:10;;;;;;;26.88;15.07;;;4.70;79.70;;;;;;9180147;19;20264;-65
2023/02/14 00:57:16;;;;;;;;;;;4.70;79.60;;;;;;9180602;19;20014;-64
2023/02/14 01:00:23;;;;;;;31.65;14.90;;;4.70;79.70;;;;;;9175904;19;19918;-63
2023/02/14 01:03:27;;;;;;;29.40;15.70;;;4.70;79.70;;;;;;9179262;19;20018;-65
2023/02/14 01:06:33;;;;;;;28.63;14.80;;;4.60;79.60;;;;;;9179579;19;20091;-64
2023/02/14 01:09:36;;;;;;;;;;;4.60;79.70;;;;;;9179114;19;20022;-65
2023/02/14 01:12:44;;;;;;;29.02;14.77;;;4.60;79.70;;;;;;9179856;19;20280;-65
2023/02/14 01:15:50;;;;;;;29.38;14.27;;;4.50;79.60;;;;;;9179739;19;20018;-65
2023/02/14 01:18:56;;;;;;;28.48;14.20;;;4.50;79.70;;;;;;9172366;19;20030;-64
2023/02/14 01:22:00;;;;;;;24.67;13.15;;;4.50;79.70;;;;;;9177394;19;20023;-64
2023/02/14 01:25:06;;;;;;;25.13;13.60;;;4.50;79.80;;;;;;9179981;19;20015;-64
2023/02/14 01:28:12;;;;;;;24.17;13.45;;;4.50;79.80;;;;;;9179143;19;20475;-62
2023/02/14 01:31:21;;;;;;;24.42;12.10;;;4.50;79.80;;;;;;9179036;19;20018;-64
2023/02/14 01:34:25;;;;;;;25.42;12.00;;;4.50;79.90;;;;;;9177772;19;20093;-65
2023/02/14 01:37:32;;;;;;;23.27;12.43;;;4.50;79.80;;;;;;9179197;19;20042;-64
2023/02/14 01:40:42;;;;;;;20.80;12.27;;;4.40;79.80;;;;;;9173532;19;20014;-64
2023/02/14 01:43:59;;;;;;;29.20;12.13;;;4.40;79.80;;;;;;9178613;19;20100;-64
2023/02/14 01:47:05;;;;;;;22.35;11.65;;;4.40;79.90;;;;;;9178352;19;20017;-64
2023/02/14 01:50:15;;;;;;;17.92;10.43;;;4.40;79.90;;;;;;9178436;19;20834;-64
2023/02/14 01:53:25;;;;;;;18.85;10.10;;;4.40;79.90;;;;;;9178439;19;20475;-64
2023/02/14 01:56:37;;;;;;;17.70;9.85;;;4.40;79.90;;;;;;9176858;19;20025;-63
2023/02/14 01:59:48;;;;;;;18.38;9.70;;;4.30;79.90;;;;;;9173697;19;20018;-64
2023/02/14 02:02:59;;;;;;;18.35;10.00;;;4.30;80.00;;;;;;9178049;19;20098;-64
2023/02/14 02:06:10;;;;;;;23.15;10.45;;;4.30;79.90;;;;;;9175517;19;20121;-64
2023/02/14 02:09:19;;;;;;;19.83;10.30;;;4.30;79.90;;;;;;9178158;19;20404;-64
2023/02/14 02:12:23;;;;;;;21.05;10.80;;;4.20;79.90;;;;;;9174090;19;20010;-64
2023/02/14 02:15:36;;;;;;;21.85;11.50;;;4.20;80.00;;;;;;9176209;19;20015;-64
2023/02/14 02:18:52;;;;;;;22.73;12.13;;;4.20;80.00;;;;;;9172048;19;20022;-64
2023/02/14 02:22:14;;;;;;;24.13;12.70;;;4.20;80.00;;;;;;9177708;19;20022;-64
2023/02/14 02:25:35;;;;;;;24.17;12.68;;;4.20;80.00;;;;;;9175494;19;20015;-64
2023/02/14 02:29:19;;;;;;;22.33;12.40;;;4.10;80.00;;;;;;9173361;19;20047;-65
2023/02/14 02:32:51;;;;;;;26.23;13.18;;;4.10;80.00;;;;;;9173434;19;20364;-64
2023/02/14 02:36:33;;;;;;;23.42;12.57;;;4.10;80.00;;;;;;9176616;19;20025;-64
2023/02/14 02:39:50;;;;;;;27.50;13.55;;;4.10;80.10;;;;;;9174648;19;20006;-64
2023/02/14 02:43:04;;;;;;;28.00;13.43;;;4.00;79.90;;;;;;9176255;19;20034;-65
2023/02/14 02:53:19;;;;;;;26.30;12.90;;;4.00;80.00;;;;;;9170093;19;20370;-65
2023/02/14 02:56:48;;;;;;;25.50;13.20;;;4.00;80.10;;;;;;9174445;19;20022;-64
2023/02/14 02:59:56;;;;;;;26.90;13.82;;;4.00;80.10;;;;;;9172610;19;20018;-63
2023/02/14 03:06:19;;;;;;;27.35;14.45;;;4.00;80.20;;;;;;9175864;19;20017;-64
2023/02/14 03:09:56;;;;;;;32.53;14.90;;;3.90;80.20;;;;;;9174829;19;20018;-64
2023/02/14 03:13:10;;;;;;;;;;;3.90;80.40;;;;;;9174520;19;20018;-63
2023/02/14 03:16:27;;;;;;;26.73;13.05;;;3.90;80.20;;;;;;9174590;19;20257;-64
2023/02/14 03:23:17;;;;;;;25.95;14.27;;;3.90;80.40;;;;;;9172737;19;20347;-64
2023/02/14 03:26:31;;;;;;;27.73;13.93;;;3.90;80.30;;;;;;9172893;19;20010;-64
2023/02/14 03:29:46;;;;;;;22.85;12.43;;;3.90;80.40;;;;;;9174614;19;20018;-64
2023/02/14 03:32:58;;;;;;;25.87;14.27;;;4.00;80.50;;;;;;9174527;19;20014;-65
2023/02/14 03:36:10;;;;;;;29.70;14.95;;;4.00;80.50;;;;;;9174417;19;20030;-64
2023/02/14 03:39:20;;;;;;;25.58;13.05;;;4.00;80.40;;;;;;9174619;19;20098;-64
2023/02/14 03:42:33;;;;;;;26.67;13.75;;;3.90;80.40;;;;;;9183604;19;20025;-65
2023/02/14 03:45:41;;;;;;;24.98;12.88;;;4.00;80.50;;;;;;9182912;19;20014;-64
2023/02/14 03:48:49;;;;;;;21.15;10.88;;;4.00;80.50;;;;;;9181313;19;20022;-65
2023/02/14 03:51:55;;;;;;;22.33;12.70;;;4.00;81.10;;;;;;9182600;19;20017;-64
2023/02/14 03:55:03;;;;;;;20.75;11.88;;;4.00;80.50;;;;;;9182568;19;20018;-64
2023/02/14 03:58:16;;;;;;;23.02;12.75;;;4.00;80.60;;;;;;9182101;19;20021;-64
2023/02/14 04:01:25;;;;;;;31.70;12.68;;;4.00;80.50;;;;;;9182322;19;20021;-63
2023/02/14 04:04:34;;;;;;;25.75;12.57;;;4.00;80.50;;;;;;9182028;19;20020;-63
2023/02/14 04:07:46;;;;;;;25.60;12.80;;;4.00;80.60;;;;;;9181615;19;20117;-63
2023/02/14 04:10:51;;;;;;;21.50;12.55;;;4.00;80.60;;;;;;9180495;19;20027;-65
2023/02/14 04:13:59;;;;;;;26.02;12.77;;;4.00;80.60;;;;;;9181506;19;20022;-65
2023/02/14 04:20:22;;;;;;;21.85;12.27;;;3.90;80.50;;;;;;9174388;19;20022;-65
2023/02/14 04:23:26;;;;;;;19.65;11.38;;;3.90;80.50;;;;;;9181049;19;20019;-65
2023/02/14 04:26:32;;;;;;;20.38;11.65;;;3.90;80.60;;;;;;9181279;19;20029;-64
2023/02/14 04:29:38;;;;;;;;;;;3.90;80.60;;;;;;9181834;19;20026;-63
2023/02/14 04:32:45;;;;;;;18.13;10.75;;;3.90;80.60;;;;;;9182121;19;20236;-63
2023/02/14 04:35:49;;;;;;;20.27;11.02;;;3.90;80.50;;;;;;9180541;19;20459;-65
2023/02/14 04:38:55;;;;;;;19.73;11.27;;;3.80;80.50;;;;;;9179830;19;20014;-65
2023/02/14 04:41:58;;;;;;;;;;;3.80;80.50;;;;;;9181574;19;20014;-63
2023/02/14 04:45:07;;;;;;;23.58;11.00;;;3.80;80.50;;;;;;9179661;19;19922;-64
2023/02/14 04:48:11;;;;;;;19.98;10.88;;;3.80;80.40;;;;;;9180317;19;20015;-62
2023/02/14 04:51:17;;;;;;;18.45;11.13;;;3.70;80.50;;;;;;9179805;19;20018;-64
2023/02/14 04:54:20;;;;;;;;;;;3.70;80.50;;;;;;9181032;19;20018;-64
2023/02/14 04:57:26;;;;;;;27.73;14.57;;;3.70;80.50;;;;;;9180065;19;19929;-65
2023/02/14 05:00:31;;;;;;;;;;;3.70;80.40;;;;;;9178576;19;20021;-62
2023/02/14 05:03:37;;;;;;;16.60;9.80;;;3.60;80.40;;;;;;9179661;19;19934;-62
2023/02/14 05:06:41;;;;;;;16.42;8.70;;;3.60;80.40;;;;;;9179431;19;20018;-62
2023/02/14 05:09:47;;;;;;;14.20;8.25;;;3.50;80.40;;;;;;9179783;19;20491;-65
2023/02/14 05:12:51;;;;;;;;;;;3.50;80.50;;;;;;9181679;19;20021;-63
2023/02/14 05:15:59;;;;;;;17.98;7.07;;;3.50;80.50;;;;;;9179768;19;19923;-63
2023/02/14 05:19:03;;;;;;;10.68;6.85;;;3.40;80.40;;;;;;9175342;19;20014;-64
2023/02/14 05:22:08;;;;;;;11.77;7.05;;;3.40;80.50;;;;;;9179014;19;20022;-64
2023/02/14 05:25:12;;;;;;;;;;;3.40;80.50;;;;;;9180291;19;20019;-64
2023/02/14 05:28:18;;;;;;;12.05;7.18;;;3.40;80.60;;;;;;9178831;19;19926;-64
2023/02/14 05:31:24;;;;;;;10.95;7.25;;;3.30;80.40;;;;;;9178889;19;20014;-63
2023/02/14 05:34:30;;;;;;;15.35;7.80;;;3.30;80.50;;;;;;9179089;19;20736;-64
2023/02/14 05:37:34;;;;;;;11.55;7.78;;;3.30;80.60;;;;;;9178608;19;20383;-64
2023/02/14 05:40:40;;;;;;;11.48;7.43;;;3.30;80.60;;;;;;9175725;19;20014;-64
2023/02/14 05:43:44;;;;;;;14.32;8.57;;;3.20;80.50;;;;;;9174818;19;20014;-66
2023/02/14 05:46:53;;;;;;;13.15;7.88;;;3.20;80.50;;;;;;9178431;19;20356;-62
2023/02/14 05:49:57;;;;;;;14.52;7.82;;;3.20;80.60;;;;;;9178969;19;20021;-64
2023/02/14 05:53:03;;;;;;;12.23;7.25;;;3.10;80.50;;;;;;9178537;19;20491;-64
2023/02/14 05:56:07;;;;;;;10.93;7.28;;;3.20;80.60;;;;;;9177863;19;20375;-64
2023/02/14 05:59:14;;;;;;;13.07;7.35;;;3.10;80.60;;;;;;9176785;19;20014;-64
2023/02/14 06:02:20;;;;;;;12.02;7.40;;;3.10;80.60;;;;;;9175799;19;20022;-64
2023/02/14 06:05:26;;;;;;;9.27;6.45;;;3.00;80.50;;;;;;9177696;19;20018;-65
2023/02/14 06:08:29;;;;;;;10.80;6.80;;;3.00;80.60;;;;;;9178540;19;20018;-63
2023/02/14 06:11:35;;;;;;;10.40;6.75;;;3.00;80.60;;;;;;9175335;19;20014;-63
2023/02/14 06:14:40;;;;;;;9.55;6.32;;;2.90;80.50;;;;;;9176725;19;20018;-62
2023/02/14 06:17:52;;;;;;;9.23;6.22;;;3.00;80.60;;;;;;9177492;19;20023;-64
2023/02/14 06:20:56;;;;;;;10.43;6.50;;;2.90;80.60;;;;;;9170439;19;20015;-63
2023/02/14 06:24:02;;;;;;;11.32;6.50;;;2.90;80.60;;;;;;9177460;19;20023;-63
2023/02/14 06:27:06;;;;;;;13.13;7.93;;;2.90;80.60;;;;;;9177063;19;20014;-62
2023/02/14 06:30:13;;;;;;;10.77;7.03;;;2.90;80.60;;;;;;9176946;19;20482;-62
2023/02/14 06:33:19;;;;;;;10.10;6.70;;;2.80;80.60;;;;;;9177007;19;20011;-64
2023/02/14 06:36:25;;;;;;;11.23;7.15;;;2.80;80.60;;;;;;9176690;19;20025;-62
2023/02/14 06:39:29;;;;;;;10.65;6.65;;;2.80;80.60;;;;;;9173794;19;20097;-64
2023/02/14 06:42:35;;;;;;;9.60;6.75;;;2.70;80.60;;;;;;9176319;19;20026;-65
2023/02/14 06:45:42;;;;;;;9.35;6.00;;;2.70;80.60;;;;;;9176180;19;20018;-62
2023/02/14 06:48:50;;;;;;;14.60;7.20;;;2.70;80.60;;;;;;9176269;19;20018;-63
2023/02/14 06:51:54;;;;;;;13.38;8.05;;;2.70;80.60;;;;;;9172748;19;20019;-62
2023/02/14 06:54:59;;;;;;;10.25;6.65;;;2.60;80.50;;;;;;9170664;19;20011;-63
2023/02/14 06:58:03;;;;;;;12.52;7.70;;;2.60;80.50;;;;;;9173885;19;20014;-63
2023/02/14 07:01:09;;;;;;;12.75;7.97;;;2.60;80.60;;;;;;9172444;19;20007;-63
2023/02/14 07:04:16;;;;;;;14.02;8.80;;;2.60;80.60;;;;;;9173211;19;20018;-64
2023/02/14 07:07:22;;;;;;;19.67;11.60;;;2.60;80.60;;;;;;9169840;19;20010;-63
2023/02/14 07:10:26;;;;;;;;;;;2.60;80.60;;;;;;9172481;19;20041;-62
2023/02/14 07:13:31;;;;;;;20.35;10.82;;;2.50;80.60;;;;;;9158278;19;19925;-62
2023/02/14 07:16:35;;;;;;;20.48;11.57;;;2.50;80.50;;;;;;9170788;19;20015;-64
2023/02/14 07:19:43;;;;;;;20.58;11.98;;;2.50;80.60;;;;;;9166087;19;20011;-64
2023/02/14 07:22:47;;;;;;;20.02;11.35;;;2.50;80.60;;;;;;9169327;19;20023;-64
2023/02/14 07:25:53;;;;;;;18.30;10.05;;;2.50;80.70;;;;;;9171352;19;20470;-63
2023/02/14 07:28:57;;;;;;;17.80;11.32;;;2.50;80.80;;;;;;9169592;19;20014;-64
2023/02/14 07:32:02;;;;;;;17.25;11.20;;;2.50;80.70;;;;;;9171935;19;20017;-63
2023/02/14 07:35:09;;;;;;;17.92;9.95;;;2.50;80.80;;;;;;9168570;19;20865;-64
2023/02/14 07:38:15;;;;;;;18.67;10.43;;;2.40;80.70;;;;;;9173216;19;20025;-66
2023/02/14 07:41:19;;;;;;;21.45;9.98;;;2.50;80.80;;;;;;9177413;19;20098;-63
2023/02/14 07:44:25;;;;;;;18.65;10.70;;;2.40;80.70;;;;;;9178741;19;20356;-62
2023/02/14 07:47:29;;;;;;;20.77;10.55;;;2.50;80.80;;;;;;9179859;19;20018;-64
2023/02/14 07:50:37;;;;;;;24.70;11.35;;;2.40;80.80;;;;;;9180366;19;20022;-63
2023/02/14 07:53:41;;;;;;;31.90;12.35;;;2.50;80.80;;;;;;9183184;19;20014;-64
2023/02/14 07:56:47;;;;;;;24.63;12.35;;;2.50;80.90;;;;;;9181979;19;20017;-63
2023/02/14 07:59:50;;;;;;;25.27;12.48;;;2.50;80.90;;;;;;9178777;19;20369;-62
2023/02/14 08:02:56;;;;;;;22.35;11.95;;;2.50;80.90;;;;;;9174901;19;20007;-64
2023/02/14 08:06:02;;;;;;;;;;;2.50;80.90;;;;;;9171132;19;20022;-63
2023/02/14 08:09:08;;;;;;;23.35;11.43;;;2.60;81.00;;;;;;9175535;19;19938;-63
2023/02/14 08:18:50;;;;;;;28.35;13.48;;;2.60;80.90;;;;;;9172478;19;20034;-63
2023/02/14 08:21:58;;;;;;;26.10;13.38;;;2.70;81.00;;;;;;9176789;19;20014;-62
2023/02/14 08:25:02;;;;;;;28.70;16.02;;;2.70;81.10;;;;;;9171683;19;20041;-63
2023/02/14 08:28:08;;;;;;;27.73;16.30;;;2.80;81.30;;;;;;9173863;19;20025;-63
2023/02/14 08:31:12;;;;;;;41.50;19.50;;;2.90;81.40;;;;;;9177793;19;20010;-63
2023/02/14 08:34:21;;;;;;;48.83;20.95;;;3.00;81.50;;;;;;9176437;19;20021;-64
2023/02/14 08:37:26;;;;;;;;;;;3.10;81.70;;;;;;9181010;19;20010;-63
2023/02/14 08:40:32;;;;;;;44.78;21.63;;;3.30;81.90;;;;;;9172301;19;19919;-63
2023/02/14 08:43:36;;;;;;;55.50;26.02;;;3.50;81.70;;;;;;9178771;19;20023;-65
2023/02/14 08:46:42;;;;;;;67.15;27.75;;;3.70;81.90;;;;;;9174705;19;20586;-62
2023/02/14 08:49:46;;;;;;;72.78;28.98;;;3.90;82.10;;;;;;9174531;19;20014;-65
2023/02/14 08:52:54;;;;;;;83.90;31.25;;;4.20;82.20;;;;;;9176409;19;20011;-65
2023/02/14 08:55:58;;;;;;;77.43;32.38;;;4.40;82.30;;;;;;9173970;19;20022;-64
2023/02/14 08:59:04;;;;;;;81.00;33.53;;;4.70;82.40;;;;;;9178289;19;20010;-65
2023/02/14 09:02:08;;;;;;;;;;;4.90;82.40;;;;;;9176748;19;20018;-65
2023/02/14 09:05:14;;;;;;;78.78;32.10;;;5.10;82.40;;;;;;9171988;19;19930;-65
2023/02/14 09:08:19;;;;;;;;;;;5.30;82.20;;;;;;9173803;19;20026;-64
2023/02/14 09:11:26;;;;;;;65.50;27.00;;;5.60;82.30;;;;;;9169747;19;19915;-64
2023/02/14 09:14:30;;;;;;;55.50;26.50;;;5.80;82.30;;;;;;9171140;19;20031;-66
2023/02/14 09:17:37;;;;;;;50.33;25.15;;;6.00;82.40;;;;;;9172618;19;20015;-65
2023/02/14 09:20:43;;;;;;;42.15;22.05;;;6.20;82.60;;;;;;9158956;19;20018;-64
2023/02/14 09:23:51;;;;;;;42.80;19.33;;;6.40;82.60;;;;;;9164810;19;20015;-64
2023/02/14 09:26:56;;;;;;;27.58;15.13;;;6.60;83.30;;;;;;9168209;19;20082;-64
2023/02/14 09:30:02;;;;;;;29.13;15.50;;;6.80;82.70;;;;;;9169202;19;20692;-63
2023/02/14 09:33:06;;;;;;;35.97;16.77;;;7.00;82.60;;;;;;9167395;19;20437;-64
2023/02/14 09:39:32;;;;;;;33.75;16.17;;;7.50;82.60;;;;;;9160023;19;20022;-66
2023/02/14 09:43:01;;;;;;;31.88;15.93;;;7.70;82.50;;;;;;9170910;19;20022;-64
2023/02/14 09:46:10;;;;;;;28.50;15.52;;;7.90;82.50;;;;;;9168841;19;20483;-67
2023/02/14 09:49:23;;;;;;;28.63;15.65;;;8.10;82.40;;;;;;9165677;19;20015;-67
2023/02/14 09:52:29;;;;;;;33.50;14.25;;;8.40;82.40;;;;;;9165981;19;20018;-66
2023/02/14 09:55:43;;;;;;;33.25;14.50;;;8.60;82.30;;;;;;9171852;19;20022;-64
2023/02/14 09:58:55;;;;;;;26.00;13.52;;;8.80;82.20;;;;;;9167372;19;20014;-64
2023/02/14 10:02:21;;;;;;;26.50;13.63;;;9.00;82.10;;;;;;9164088;19;20017;-67
2023/02/14 10:05:28;;;;;;;30.63;13.82;;;9.20;82.00;;;;;;9168647;19;20029;-66
2023/02/14 10:08:45;;;;;;;25.70;13.70;;;9.40;81.90;;;;;;9168499;19;20459;-64
2023/02/14 10:11:51;;;;;;;26.55;14.25;;;9.50;81.80;;;;;;9162760;19;20021;-67
2023/02/14 10:15:01;;;;;;;26.05;13.77;;;9.70;82.30;;;;;;9162182;19;20014;-66
2023/02/14 10:18:11;;;;;;;26.80;12.70;;;9.90;81.70;;;;;;9169339;19;20571;-66
2023/02/14 10:21:24;;;;;;;29.38;14.20;;;10.10;81.70;;;;;;9156553;19;20014;-65
2023/02/14 10:24:31;;;;;;;24.60;13.82;;;10.30;81.60;;;;;;9161165;19;20022;-65
2023/02/14 10:27:42;;;;;;;26.83;13.45;;;10.50;82.10;;;;;;9168705;19;20021;-67
2023/02/14 10:30:56;;;;;;;27.77;14.50;;;10.70;81.40;;;;;;9169242;19;20466;-67
2023/02/14 10:34:08;;;;;;;32.38;12.98;;;10.90;81.40;;;;;;9173777;19;20018;-66
2023/02/14 10:37:30;;;;;;;27.73;14.43;;;11.00;81.10;;;;;;9171772;19;20042;-66
2023/02/14 10:40:48;;;;;;;29.50;13.77;;;11.20;81.00;;;;;;9171663;19;20014;-66
2023/02/14 10:44:03;;;;;;;28.02;14.35;;;11.40;81.00;;;;;;9175245;19;20036;-66
2023/02/14 10:47:24;;;;;;;26.35;14.18;;;11.60;80.80;;;;;;9170021;19;20022;-66
2023/02/14 10:50:36;;;;;;;29.70;14.68;;;11.80;80.70;;;;;;9180194;19;20372;-66
2023/02/14 10:53:51;;;;;;;26.20;14.30;;;12.00;80.60;;;;;;9177000;19;21620;-66
2023/02/14 10:57:01;;;;;;;29.58;14.82;;;12.10;80.40;;;;;;9180029;19;20059;-66
2023/02/14 11:00:21;;;;;;;27.75;14.50;;;12.30;80.30;;;;;;9175873;19;20868;-66
2023/02/14 11:03:25;;;;;;;27.40;14.65;;;12.40;80.10;;;;;;9171028;19;20496;-66
2023/02/14 11:06:31;;;;;;;29.13;15.23;;;12.50;80.10;;;;;;9177922;19;20491;-66
2023/02/14 11:09:35;;;;;;;30.83;15.07;;;12.70;79.90;;;;;;9177142;19;20011;-66
2023/02/14 11:12:42;;;;;;;31.00;14.65;;;12.80;79.80;;;;;;9179143;19;20014;-66
2023/02/14 11:15:50;;;;;;;32.38;16.30;;;12.90;79.60;;;;;;9179441;19;20011;-65
2023/02/14 11:19:10;;;;;;;33.88;16.17;;;13.00;79.40;;;;;;9171718;19;20010;-65
2023/02/14 11:22:30;;;;;;;33.83;15.90;;;13.20;79.30;;;;;;9167120;19;20627;-64
2023/02/14 11:25:36;;;;;;;32.10;16.67;;;13.30;78.90;;;;;;9171990;19;20015;-62
2023/02/14 11:28:49;;;;;;;31.45;15.18;;;13.30;79.00;;;;;;9169705;19;20490;-63
2023/02/14 11:32:06;;;;;;;35.80;16.02;;;13.40;78.80;;;;;;9174237;19;20021;-63
2023/02/14 11:35:19;;;;;;;31.45;15.75;;;13.50;78.90;;;;;;9174852;19;20614;-63
2023/02/14 11:38:29;;;;;;;30.45;15.63;;;13.60;78.80;;;;;;9169408;19;20014;-62
2023/02/14 11:41:49;;;;;;;37.38;16.95;;;13.60;78.80;;;;;;9168403;19;20078;-62
2023/02/14 11:44:58;;;;;;;35.72;16.38;;;13.70;78.40;;;;;;9172317;19;20007;-63
2023/02/14 11:48:17;;;;;;;35.58;17.20;;;13.80;78.70;;;;;;9181003;19;20093;-63
2023/02/14 11:51:39;;;;;;;36.28;16.58;;;13.90;78.30;;;;;;9174963;19;20022;-64
2023/02/14 11:54:49;;;;;;;38.53;16.70;;;13.90;78.50;;;;;;9175627;19;20010;-64
2023/02/14 11:57:55;;;;;;;37.25;17.70;;;14.00;78.30;;;;;;9173769;19;20018;-64
2023/02/14 12:01:00;;;;;;;32.22;17.38;;;14.10;78.10;;;;;;9170868;19;20613;-63
2023/02/14 12:04:17;;;;;;;30.45;17.30;;;14.10;77.80;;;;;;9174345;19;20014;-63
2023/02/14 12:07:25;;;;;;;35.10;17.23;;;14.00;77.40;;;;;;9171586;19;20041;-63
2023/02/14 12:10:32;;;;;;;33.28;16.88;;;14.00;77.30;;;;;;9173284;19;20014;-63
2023/02/14 12:13:36;;;;;;;35.13;18.73;;;13.90;77.30;;;;;;9174910;19;20030;-63
2023/02/14 12:16:48;;;;;;;32.28;17.48;;;13.90;77.20;;;;;;9172914;19;20023;-63
2023/02/14 12:20:00;;;;;;;37.30;17.58;;;13.80;77.00;;;;;;9169766;19;20022;-63
2023/02/14 12:23:11;;;;;;;36.25;17.75;;;13.70;76.90;;;;;;9176271;19;20010;-63
2023/02/14 12:26:25;;;;;;;33.95;18.27;;;13.60;76.90;;;;;;9174319;19;20081;-65
2023/02/14 12:29:35;;;;;;;36.20;18.35;;;13.60;76.80;;;;;;9175635;19;20010;-65
2023/02/14 12:32:43;;;;;;;35.45;17.75;;;13.50;76.90;;;;;;9172601;19;20032;-63
2023/02/14 12:36:01;;;;;;;37.15;18.73;;;13.40;76.90;;;;;;9178165;19;20510;-62
2023/02/14 12:39:14;;;;;;;34.67;17.23;;;13.40;76.90;;;;;;9178224;19;20019;-64
2023/02/14 12:42:37;;;;;;;38.17;19.23;;;13.30;76.80;;;;;;9169410;19;20063;-63
2023/02/14 12:46:04;;;;;;;40.92;18.55;;;13.30;76.80;;;;;;9175137;19;20011;-65
2023/02/14 12:49:38;;;;;;;37.72;18.88;;;13.30;76.70;;;;;;9174428;19;20497;-65
2023/02/14 12:53:11;;;;;;;40.85;18.95;;;13.20;76.70;;;;;;9168761;19;20026;-63
2023/02/14 12:56:26;;;;;;;34.75;17.77;;;13.20;76.70;;;;;;9173270;19;20019;-65
2023/02/14 12:59:37;;;;;;;37.75;18.65;;;13.20;76.80;;;;;;9173448;19;20051;-65
2023/02/14 13:03:21;;;;;;;34.60;18.85;;;13.20;76.80;;;;;;9174121;19;20014;-63
2023/02/14 13:06:30;;;;;;;39.75;19.42;;;13.20;76.50;;;;;;9178839;19;20098;-63
2023/02/14 13:09:48;;;;;;;36.67;19.52;;;13.10;76.70;;;;;;9179412;19;20490;-64
2023/02/14 13:12:59;;;;;;;45.10;20.95;;;13.20;76.70;;;;;;9176752;19;20026;-65
2023/02/14 13:16:15;;;;;;;35.92;19.20;;;13.10;76.70;;;;;;9179361;19;20026;-65
2023/02/14 13:19:33;;;;;;;35.85;20.05;;;13.10;77.20;;;;;;9172777;19;20633;-64
2023/02/14 13:22:42;;;;;;;35.50;18.00;;;13.10;76.60;;;;;;9175223;19;20106;-65
2023/02/14 13:25:52;;;;;;;37.95;18.83;;;13.00;76.60;;;;;;9176881;19;20018;-65
2023/02/14 13:29:04;;;;;;;38.35;18.95;;;12.90;76.50;;;;;;9171420;19;20013;-65
2023/02/14 13:32:11;;;;;;;36.92;18.92;;;12.90;76.60;;;;;;9167108;19;20015;-65
2023/02/14 13:35:19;;;;;;;36.50;19.10;;;12.90;76.70;;;;;;9176937;19;20356;-64
2023/02/14 13:38:24;;;;;;;38.05;18.60;;;12.80;76.70;;;;;;9172363;19;20102;-63
2023/02/14 13:41:33;;;;;;;39.53;20.20;;;12.80;76.70;;;;;;9174947;19;20534;-64
2023/02/14 13:44:44;;;;;;;42.88;20.48;;;12.70;76.60;;;;;;9177332;19;20010;-63
2023/02/14 13:48:04;;;;;;;41.08;20.45;;;12.70;76.60;;;;;;9176031;19;20022;-65
2023/02/14 13:51:09;;;;;;;36.53;18.88;;;12.60;76.50;;;;;;9177500;19;20018;-65
2023/02/14 13:54:23;;;;;;;41.10;19.67;;;12.60;76.70;;;;;;9177715;19;20376;-65
2023/02/14 13:57:35;;;;;;;39.67;20.58;;;12.60;76.60;;;;;;9178237;19;20017;-65
2023/02/14 14:00:42;;;;;;;38.88;19.35;;;12.50;76.60;;;;;;9175565;19;20033;-65
2023/02/14 14:04:01;;;;;;;35.38;18.92;;;12.50;76.70;;;;;;9177979;19;20010;-65
2023/02/14 14:07:24;;;;;;;41.30;20.17;;;12.50;76.70;;;;;;9177789;19;20022;-65
2023/02/14 14:10:44;;;;;;;38.60;19.70;;;12.50;76.60;;;;;;9175695;19;20014;-63
2023/02/14 14:14:03;;;;;;;39.30;20.17;;;12.50;76.60;;;;;;9177616;19;20015;-63
2023/02/14 14:17:26;;;;;;;39.25;18.48;;;12.50;76.60;;;;;;9177501;19;20010;-63
2023/02/14 14:20:40;;;;;;;;;;;12.40;76.50;;;;;;9171918;19;20470;-63
2023/02/14 14:23:44;;;;;;;40.83;20.20;;;12.40;77.30;;;;;;9174013;19;19990;-65
2023/02/14 14:26:52;;;;;;;44.40;19.40;;;12.40;76.70;;;;;;9174419;19;20014;-65
2023/02/14 14:30:00;;;;;;;41.47;19.92;;;12.40;76.70;;;;;;9167851;19;20022;-64
2023/02/14 14:33:16;;;;;;;37.50;18.92;;;12.40;76.70;;;;;;9172687;19;20006;-65
2023/02/14 14:36:24;;;;;;;35.65;18.88;;;12.40;76.50;;;;;;9174116;19;20477;-65
2023/02/14 14:39:32;;;;;;;40.20;19.98;;;12.40;76.50;;;;;;9173811;19;20010;-64
2023/02/14 14:42:40;;;;;;;35.63;19.42;;;12.40;76.50;;;;;;9167084;19;20487;-65
2023/02/14 14:45:51;;;;;;;34.67;19.50;;;12.40;76.50;;;;;;9166030;19;20023;-65
2023/02/14 14:48:58;;;;;;;40.50;19.77;;;12.40;76.40;;;;;;9169346;19;20026;-65
2023/02/14 14:52:04;;;;;;;34.00;18.40;;;12.40;76.40;;;;;;9165452;19;20381;-65
2023/02/14 14:55:17;;;;;;;38.65;19.00;;;12.30;76.40;;;;;;9175833;19;20017;-65
2023/02/14 14:58:39;;;;;;;42.40;20.10;;;12.30;76.30;;;;;;9175270;19;20472;-65
2023/02/14 15:01:46;;;;;;;40.55;20.08;;;12.30;76.20;;;;;;9172389;19;20018;-65
2023/02/14 15:04:52;;;;;;;37.45;19.00;;;12.30;76.30;;;;;;9173333;19;20029;-65
2023/02/14 15:07:56;;;;;;;41.25;18.95;;;12.30;76.30;;;;;;9175426;19;20479;-65
2023/02/14 15:11:08;;;;;;;35.53;19.50;;;12.30;76.30;;;;;;9172654;19;20007;-64
2023/02/14 15:14:23;;;;;;;36.50;19.45;;;12.30;76.20;;;;;;9174815;19;20676;-65
2023/02/14 15:17:33;;;;;;;35.05;18.27;;;12.30;76.10;;;;;;9174962;19;20019;-65
2023/02/14 15:20:38;;;;;;;42.47;20.27;;;12.30;76.10;;;;;;9169077;19;20010;-65
2023/02/14 15:23:44;;;;;;;38.70;19.23;;;12.30;76.20;;;;;;9172843;19;20019;-65
2023/02/14 15:26:50;;;;;;;40.28;19.67;;;12.20;76.00;;;;;;9170078;19;20597;-65
2023/02/14 15:30:00;;;;;;;47.47;20.75;;;12.20;76.00;;;;;;9167220;19;20380;-65
2023/02/14 15:33:08;;;;;;;41.42;18.85;;;12.20;76.00;;;;;;9170774;19;20376;-65
2023/02/14 15:36:23;;;;;;;49.58;21.10;;;12.20;75.90;;;;;;9176490;19;20022;-65
2023/02/14 15:39:36;;;;;;;44.03;21.77;;;12.20;75.90;;;;;;9171685;19;20082;-65
2023/02/14 15:42:45;;;;;;;44.88;20.92;;;12.20;75.90;;;;;;9177635;19;20593;-65
2023/02/14 15:45:51;;;;;;;41.70;20.15;;;12.20;76.00;;;;;;9178841;19;20026;-65
2023/02/14 15:49:01;;;;;;;39.13;20.20;;;12.10;75.90;;;;;;9180464;19;20014;-65
2023/02/14 15:52:07;;;;;;;42.95;20.70;;;12.10;75.90;;;;;;9180836;19;20018;-65
2023/02/14 15:55:16;;;;;;;39.78;20.80;;;12.10;75.90;;;;;;9180781;19;20411;-65
2023/02/14 15:58:23;;;;;;;38.92;20.23;;;12.10;75.90;;;;;;9174948;19;20018;-65
2023/02/14 16:01:30;;;;;;;40.50;19.95;;;12.10;75.90;;;;;;9163200;19;20498;-65
2023/02/14 16:04:36;;;;;;;42.00;20.17;;;12.00;75.80;;;;;;9162392;19;21157;-65
2023/02/14 16:07:55;;;;;;;42.00;20.05;;;12.00;75.90;;;;;;9163089;19;20010;-65
2023/02/14 16:11:01;;;;;;;43.15;20.33;;;11.90;75.80;;;;;;9160781;19;20019;-65
2023/02/14 16:14:31;;;;;;;43.53;20.65;;;11.90;75.80;;;;;;9165614;19;20018;-65
2023/02/14 16:17:36;;;;;;;43.28;19.95;;;11.80;75.70;;;;;;9174527;19;20022;-65
2023/02/14 16:20:49;;;;;;;40.25;19.33;;;11.80;75.80;;;;;;9168379;19;20018;-65
2023/02/14 16:24:12;;;;;;;42.20;20.58;;;11.70;75.80;;;;;;9173039;19;20018;-65
2023/02/14 16:27:18;;;;;;;;;;;11.70;75.80;;;;;;9174761;19;20344;-65
2023/02/14 16:30:22;;;;;;;27.30;14.67;;;11.60;75.90;;;;;;9173530;19;19958;-65
2023/02/14 16:33:31;;;;;;;52.40;22.42;;;11.50;75.90;;;;;;9171338;19;20328;-65
2023/02/14 16:36:37;;;;;;;38.88;19.92;;;11.50;75.90;;;;;;9174379;19;20014;-66
2023/02/14 16:39:43;;;;;;;47.80;19.83;;;11.40;75.90;;;;;;9171728;19;20094;-68
2023/02/14 16:42:47;;;;;;;45.42;20.85;;;11.30;75.90;;;;;;9171650;19;20014;-66
2023/02/14 16:45:52;;;;;;;38.33;20.45;;;11.30;76.00;;;;;;9174044;19;20021;-66